createdAt,value
2022-12-26T00:01:40.573Z,10.80
2022-12-26T00:04:48.650Z,10.80
2022-12-26T00:07:37.875Z,10.70
2022-12-26T00:10:25.693Z,10.80
2022-12-26T00:13:38.242Z,10.80
2022-12-26T00:16:22.018Z,10.80
2022-12-26T00:19:10.116Z,10.80
2022-12-26T00:21:57.964Z,10.80
2022-12-26T00:24:48.234Z,10.80
2022-12-26T00:27:36.077Z,10.80
2022-12-26T00:30:24.234Z,10.80
2022-12-26T00:33:12.253Z,10.80
2022-12-26T00:36:02.068Z,10.80
2022-12-26T00:38:50.288Z,10.80
2022-12-26T00:41:39.822Z,10.80
2022-12-26T00:44:27.687Z,10.80
2022-12-26T00:47:15.545Z,10.80
2022-12-26T00:50:13.155Z,10.80
2022-12-26T00:53:03.001Z,10.90
2022-12-26T00:55:51.379Z,10.80
2022-12-26T00:58:45.970Z,10.80
2022-12-26T01:01:33.981Z,10.80
2022-12-26T01:04:21.976Z,10.90
2022-12-26T01:07:09.773Z,10.90
2022-12-26T01:09:57.616Z,10.90
2022-12-26T01:12:45.432Z,10.90
2022-12-26T01:15:34.579Z,10.90
2022-12-26T01:18:24.363Z,10.90
2022-12-26T01:21:12.303Z,10.90
2022-12-26T01:24:00.149Z,10.90
2022-12-26T01:26:48.469Z,10.90
2022-12-26T01:29:36.325Z,10.90
2022-12-26T01:32:25.617Z,10.90
2022-12-26T01:35:13.430Z,11.00
2022-12-26T01:38:01.251Z,10.90
2022-12-26T01:40:49.609Z,10.90
2022-12-26T01:43:56.985Z,10.90
2022-12-26T01:46:46.587Z,10.90
2022-12-26T01:49:38.055Z,10.90
2022-12-26T01:52:28.805Z,10.90
2022-12-26T01:55:18.768Z,10.90
2022-12-26T01:58:08.220Z,10.90
2022-12-26T02:00:56.320Z,10.90
2022-12-26T02:04:03.052Z,10.90
2022-12-26T02:06:52.346Z,10.90
2022-12-26T02:09:40.575Z,11.00
2022-12-26T02:12:36.627Z,10.90
2022-12-26T02:15:26.746Z,10.90
2022-12-26T02:18:14.568Z,10.90
2022-12-26T02:21:07.993Z,10.90
2022-12-26T02:24:11.630Z,10.90
2022-12-26T02:27:05.729Z,10.90
2022-12-26T02:30:02.470Z,10.90
2022-12-26T02:33:14.639Z,10.90
2022-12-26T02:36:15.122Z,10.90
2022-12-26T02:39:42.418Z,10.90
2022-12-26T02:42:23.485Z,10.80
2022-12-26T02:45:33.183Z,10.80
2022-12-26T02:48:23.542Z,10.80
2022-12-26T02:51:36.783Z,10.90
2022-12-26T02:54:48.121Z,10.90
2022-12-26T02:57:56.191Z,10.90
2022-12-26T03:01:02.930Z,10.80
2022-12-26T03:04:10.175Z,10.90
2022-12-26T03:07:18.977Z,10.90
2022-12-26T03:10:43.245Z,10.90
2022-12-26T03:13:33.224Z,10.80
2022-12-26T03:16:39.853Z,10.90
2022-12-26T03:19:29.104Z,10.90
2022-12-26T03:22:31.444Z,10.90
2022-12-26T03:25:41.369Z,10.80
2022-12-26T03:28:29.441Z,10.80
2022-12-26T03:31:16.316Z,10.80
2022-12-26T03:34:20.929Z,10.80
2022-12-26T03:37:47.848Z,10.80
2022-12-26T03:41:06.968Z,10.90
2022-12-26T03:44:22.656Z,10.90
2022-12-26T03:47:33.161Z,10.80
2022-12-26T03:50:41.145Z,10.90
2022-12-26T03:53:49.191Z,10.90
2022-12-26T03:56:57.899Z,10.90
2022-12-26T04:00:05.845Z,10.90
2022-12-26T04:03:12.237Z,10.80
2022-12-26T04:06:20.172Z,10.80
2022-12-26T04:09:27.788Z,10.80
2022-12-26T04:12:37.579Z,10.80
2022-12-26T04:15:44.571Z,10.80
2022-12-26T04:18:52.055Z,10.90
2022-12-26T04:22:00.715Z,10.80
2022-12-26T04:25:08.823Z,10.90
2022-12-26T04:28:15.377Z,10.80
2022-12-26T04:31:24.645Z,10.80
2022-12-26T04:34:34.627Z,10.80
2022-12-26T04:37:42.794Z,10.80
2022-12-26T04:40:50.505Z,10.80
2022-12-26T04:43:57.864Z,10.80
2022-12-26T04:46:47.307Z,10.80
2022-12-26T04:49:59.828Z,10.80
2022-12-26T04:52:58.755Z,10.80
2022-12-26T04:55:46.745Z,10.90
2022-12-26T04:58:34.582Z,10.80
2022-12-26T05:01:41.442Z,10.80
2022-12-26T05:04:47.662Z,10.80
2022-12-26T05:08:05.808Z,10.80
2022-12-26T05:10:53.658Z,10.80
2022-12-26T05:13:41.533Z,10.80
2022-12-26T05:16:48.465Z,10.90
2022-12-26T05:19:54.025Z,10.90
2022-12-26T05:23:00.583Z,10.90
2022-12-26T05:26:06.746Z,10.90
2022-12-26T05:28:56.693Z,10.80
2022-12-26T05:31:46.095Z,10.80
2022-12-26T05:34:32.995Z,10.90
2022-12-26T05:37:20.887Z,10.90
2022-12-26T05:40:09.417Z,10.80
2022-12-26T05:42:57.384Z,10.90
2022-12-26T05:45:45.264Z,10.90
2022-12-26T05:48:34.530Z,10.90
2022-12-26T05:51:22.345Z,10.90
2022-12-26T05:54:10.197Z,10.90
2022-12-26T05:56:58.234Z,10.90
2022-12-26T05:59:46.114Z,10.90
2022-12-26T06:02:34.017Z,10.90
2022-12-26T06:05:23.328Z,10.90
2022-12-26T06:08:11.118Z,10.90
2022-12-26T06:10:59.132Z,10.90
2022-12-26T06:13:47.275Z,10.90
2022-12-26T06:16:35.226Z,10.90
2022-12-26T06:19:23.151Z,10.80
2022-12-26T06:22:12.317Z,10.80
2022-12-26T06:25:00.454Z,10.80
2022-12-26T06:27:48.243Z,10.90
2022-12-26T06:30:36.089Z,10.80
2022-12-26T06:33:23.848Z,10.90
2022-12-26T06:36:12.316Z,10.90
2022-12-26T06:39:01.661Z,10.90
2022-12-26T06:41:49.610Z,10.90
2022-12-26T06:44:37.474Z,10.90
2022-12-26T06:47:25.337Z,10.90
2022-12-26T06:50:13.192Z,10.90
2022-12-26T06:53:00.953Z,10.90
2022-12-26T06:55:50.392Z,10.90
2022-12-26T06:58:38.460Z,10.90
2022-12-26T07:01:27.310Z,10.90
2022-12-26T07:04:15.231Z,10.90
2022-12-26T07:07:03.065Z,10.90
2022-12-26T07:09:50.941Z,10.90
2022-12-26T07:12:40.258Z,10.90
2022-12-26T07:15:28.187Z,10.90
2022-12-26T07:18:16.099Z,10.90
2022-12-26T07:21:05.521Z,10.90
2022-12-26T07:23:54.328Z,10.90
2022-12-26T07:26:42.305Z,10.80
2022-12-26T07:29:31.469Z,10.80
2022-12-26T07:32:19.548Z,10.80
2022-12-26T07:35:07.630Z,10.60
2022-12-26T07:37:55.445Z,10.60
2022-12-26T07:40:43.358Z,10.50
2022-12-26T07:43:31.192Z,10.40
2022-12-26T07:46:22.808Z,10.40
2022-12-26T07:49:12.144Z,10.30
2022-12-26T07:52:00.125Z,10.20
2022-12-26T07:54:47.971Z,10.20
2022-12-26T07:57:48.597Z,10.20
2022-12-26T08:00:36.959Z,10.10
2022-12-26T08:03:26.155Z,10.10
2022-12-26T08:06:14.023Z,10.20
2022-12-26T08:09:01.985Z,10.20
2022-12-26T08:11:49.851Z,10.20
2022-12-26T08:14:37.701Z,10.20
2022-12-26T08:17:25.585Z,10.20
2022-12-26T08:20:14.930Z,10.20
2022-12-26T08:23:02.768Z,10.20
2022-12-26T08:25:50.651Z,10.20
2022-12-26T08:28:38.799Z,10.10
2022-12-26T08:34:19.377Z,10.10
2022-12-26T08:37:08.520Z,10.10
2022-12-26T08:39:56.349Z,10.10
2022-12-26T08:42:56.114Z,10.10
2022-12-26T08:45:58.342Z,10.20
2022-12-26T08:48:46.308Z,10.20
2022-12-26T08:51:34.286Z,10.20
2022-12-26T08:54:23.495Z,10.20
2022-12-26T08:57:11.419Z,10.20
2022-12-26T08:59:59.248Z,10.20
2022-12-26T09:02:48.854Z,10.20
2022-12-26T09:05:36.889Z,10.10
2022-12-26T09:08:24.746Z,10.10
2022-12-26T09:11:15.094Z,10.20
2022-12-26T09:14:03.610Z,10.20
2022-12-26T09:16:53.117Z,10.20
2022-12-26T09:19:41.326Z,10.30
2022-12-26T09:22:50.133Z,10.10
2022-12-26T09:25:38.076Z,10.30
2022-12-26T09:28:27.243Z,10.30
2022-12-26T09:31:16.299Z,10.20
2022-12-26T09:34:05.010Z,10.20
2022-12-26T09:36:53.019Z,10.20
2022-12-26T09:39:40.796Z,10.30
2022-12-26T09:42:32.809Z,10.20
2022-12-26T09:45:27.679Z,10.20
2022-12-26T09:48:19.883Z,10.20
2022-12-26T09:51:10.546Z,10.20
2022-12-26T09:53:59.911Z,10.10
2022-12-26T09:57:05.377Z,10.00
2022-12-26T09:59:56.916Z,10.20
2022-12-26T10:02:47.315Z,10.20
2022-12-26T10:05:37.025Z,10.20
2022-12-26T10:08:28.449Z,10.20
2022-12-26T10:11:18.939Z,10.10
2022-12-26T10:14:10.647Z,10.20
2022-12-26T10:17:03.071Z,10.20
2022-12-26T10:19:58.596Z,10.20
2022-12-26T10:23:10.354Z,10.20
2022-12-26T10:25:59.763Z,10.20
2022-12-26T10:28:50.527Z,10.30
2022-12-26T10:31:42.172Z,10.30
2022-12-26T10:34:32.015Z,10.30
2022-12-26T10:37:25.067Z,10.40
2022-12-26T10:40:18.411Z,10.40
2022-12-26T10:43:18.726Z,10.40
2022-12-26T10:46:24.455Z,10.40
2022-12-26T10:49:13.111Z,10.40
2022-12-26T10:52:02.289Z,10.50
2022-12-26T10:55:29.406Z,10.40
2022-12-26T10:58:06.636Z,10.40
2022-12-26T11:00:54.503Z,10.40
2022-12-26T11:03:54.538Z,10.40
2022-12-26T11:06:43.169Z,10.40
2022-12-26T11:09:36.701Z,10.40
2022-12-26T11:12:27.146Z,10.40
2022-12-26T11:15:19.635Z,10.50
2022-12-26T11:18:28.327Z,10.40
2022-12-26T11:21:21.437Z,10.40
2022-12-26T11:24:17.282Z,10.40
2022-12-26T11:27:17.857Z,10.40
2022-12-26T11:30:20.563Z,10.40
2022-12-26T11:33:14.790Z,10.50
2022-12-26T11:36:05.439Z,10.50
2022-12-26T11:38:54.986Z,10.50
2022-12-26T11:41:44.111Z,10.60
2022-12-26T11:44:33.183Z,10.50
2022-12-26T11:47:22.192Z,10.60
2022-12-26T11:50:17.694Z,10.60
2022-12-26T11:53:06.587Z,10.60
2022-12-26T11:56:01.502Z,10.60
2022-12-26T11:58:49.358Z,10.60
2022-12-26T12:01:37.329Z,10.60
2022-12-26T12:04:25.347Z,10.60
2022-12-26T12:07:18.521Z,10.70
2022-12-26T12:10:13.450Z,10.70
2022-12-26T12:13:05.311Z,10.70
2022-12-26T12:15:57.298Z,10.60
2022-12-26T12:18:52.326Z,10.60
2022-12-26T12:21:44.722Z,10.60
2022-12-26T12:24:39.686Z,10.60
2022-12-26T12:27:30.467Z,10.60
2022-12-26T12:30:20.269Z,10.60
2022-12-26T12:33:17.020Z,10.60
2022-12-26T12:36:09.570Z,10.60
2022-12-26T12:39:03.205Z,10.60
2022-12-26T12:42:21.853Z,10.50
2022-12-26T12:45:27.040Z,10.60
2022-12-26T12:48:27.047Z,10.60
2022-12-26T12:51:20.670Z,10.70
2022-12-26T12:54:35.730Z,10.50
2022-12-26T12:57:29.053Z,10.50
2022-12-26T13:00:19.425Z,10.40
2022-12-26T13:03:11.361Z,10.40
2022-12-26T13:06:02.443Z,10.50
2022-12-26T13:08:52.985Z,10.60
2022-12-26T13:11:43.025Z,10.50
2022-12-26T13:14:33.989Z,10.60
2022-12-26T13:17:24.454Z,10.50
2022-12-26T13:20:15.888Z,10.60
2022-12-26T13:23:24.011Z,10.60
2022-12-26T13:26:13.504Z,10.60
2022-12-26T13:29:04.033Z,10.50
2022-12-26T13:31:53.376Z,10.70
2022-12-26T13:34:43.732Z,10.70
2022-12-26T13:37:55.696Z,10.70
2022-12-26T13:40:46.445Z,10.70
2022-12-26T13:44:05.467Z,10.70
2022-12-26T13:46:58.352Z,10.70
2022-12-26T13:49:46.252Z,10.70
2022-12-26T13:52:35.402Z,10.70
2022-12-26T13:55:32.485Z,10.70
2022-12-26T13:58:23.645Z,10.70
2022-12-26T14:01:21.959Z,10.60
2022-12-26T14:04:27.913Z,10.60
2022-12-26T14:07:21.985Z,10.60
2022-12-26T14:10:16.029Z,10.60
2022-12-26T14:13:06.288Z,10.50
2022-12-26T14:15:57.363Z,10.40
2022-12-26T14:18:48.889Z,10.30
2022-12-26T14:21:41.217Z,10.30
2022-12-26T14:24:32.583Z,10.30
2022-12-26T14:27:26.923Z,10.30
2022-12-26T14:30:22.516Z,10.30
2022-12-26T14:33:21.927Z,10.20
2022-12-26T14:36:16.944Z,10.10
2022-12-26T14:39:12.381Z,10.00
2022-12-26T14:42:38.387Z,9.90
2022-12-26T14:45:43.275Z,9.90
2022-12-26T14:48:55.360Z,9.90
2022-12-26T14:51:43.206Z,9.90
2022-12-26T14:54:50.796Z,9.90
2022-12-26T14:57:44.167Z,9.80
2022-12-26T15:00:34.676Z,9.70
2022-12-26T15:03:41.576Z,9.70
2022-12-26T15:06:47.371Z,9.50
2022-12-26T15:09:53.948Z,9.40
2022-12-26T15:13:03.299Z,9.10
2022-12-26T15:16:04.618Z,8.90
2022-12-26T15:19:16.516Z,8.80
2022-12-26T15:22:16.151Z,8.70
2022-12-26T15:25:32.428Z,8.60
2022-12-26T15:28:44.424Z,8.60
2022-12-26T15:31:41.723Z,8.50
2022-12-26T15:34:33.505Z,8.40
2022-12-26T15:37:28.709Z,8.40
2022-12-26T15:40:20.986Z,8.30
2022-12-26T15:43:18.803Z,8.20
2022-12-26T15:46:11.546Z,8.20
2022-12-26T15:49:06.970Z,8.20
2022-12-26T15:52:02.034Z,8.20
2022-12-26T15:54:57.150Z,8.10
2022-12-26T15:57:49.859Z,8.10
2022-12-26T16:00:39.361Z,8.10
2022-12-26T16:03:31.933Z,8.00
2022-12-26T16:06:32.048Z,7.90
2022-12-26T16:09:31.781Z,7.90
2022-12-26T16:12:21.726Z,7.90
2022-12-26T16:15:16.284Z,7.90
2022-12-26T16:18:14.418Z,7.90
2022-12-26T16:21:21.643Z,7.90
2022-12-26T16:24:11.899Z,7.90
2022-12-26T16:27:01.509Z,7.90
2022-12-26T16:29:50.825Z,7.80
2022-12-26T16:32:40.809Z,7.90
2022-12-26T16:35:30.631Z,7.90
2022-12-26T16:38:20.479Z,7.80
2022-12-26T16:41:20.203Z,7.80
2022-12-26T16:44:30.006Z,7.80
2022-12-26T16:47:18.554Z,7.80
2022-12-26T16:50:06.824Z,7.80
2022-12-26T16:53:02.219Z,7.70
2022-12-26T16:55:51.683Z,7.70
2022-12-26T16:58:41.050Z,7.70
2022-12-26T17:01:28.910Z,7.70
2022-12-26T17:04:18.639Z,7.70
2022-12-26T17:07:08.539Z,7.60
2022-12-26T17:09:58.543Z,7.60
2022-12-26T17:12:47.974Z,7.60
2022-12-26T17:15:37.904Z,7.60
2022-12-26T17:18:37.590Z,7.60
2022-12-26T17:21:28.882Z,7.60
2022-12-26T17:24:23.054Z,7.50
2022-12-26T17:27:16.214Z,7.50
2022-12-26T17:30:20.603Z,7.50
2022-12-26T17:33:12.646Z,7.50
2022-12-26T17:39:16.347Z,7.40
2022-12-26T17:42:04.211Z,7.30
2022-12-26T17:44:52.139Z,7.30
2022-12-26T17:47:39.930Z,7.30
2022-12-26T17:50:32.570Z,7.20
2022-12-26T17:53:26.533Z,7.20
2022-12-26T17:56:16.089Z,7.20
2022-12-26T17:59:05.032Z,7.20
2022-12-26T18:01:52.908Z,7.20
2022-12-26T18:04:40.825Z,7.00
2022-12-26T18:07:31.826Z,6.80
2022-12-26T18:10:21.233Z,6.80
2022-12-26T18:13:11.448Z,6.80
2022-12-26T18:15:59.664Z,6.80
2022-12-26T18:18:48.347Z,6.80
2022-12-26T18:21:36.307Z,6.80
2022-12-26T18:24:25.531Z,6.80
2022-12-26T18:27:18.015Z,6.90
2022-12-26T18:30:06.449Z,6.90
2022-12-26T18:32:54.333Z,6.90
2022-12-26T18:35:43.166Z,6.80
2022-12-26T18:38:31.011Z,6.70
2022-12-26T18:41:20.551Z,6.60
2022-12-26T18:44:08.432Z,6.60
2022-12-26T18:46:56.306Z,6.60
2022-12-26T18:49:44.741Z,6.50
2022-12-26T18:52:32.919Z,6.50
2022-12-26T18:55:20.837Z,6.50
2022-12-26T18:58:11.423Z,6.50
2022-12-26T19:00:59.657Z,6.50
2022-12-26T19:03:47.623Z,6.40
2022-12-26T19:06:35.566Z,6.40
2022-12-26T19:09:23.465Z,6.40
2022-12-26T19:12:11.567Z,6.30
2022-12-26T19:15:00.876Z,6.20
2022-12-26T19:17:50.744Z,6.10
2022-12-26T19:20:44.056Z,5.80
2022-12-26T19:23:32.011Z,5.70
2022-12-26T19:26:20.334Z,5.60
2022-12-26T19:29:08.152Z,5.60
2022-12-26T19:31:57.453Z,5.50
2022-12-26T19:34:45.486Z,5.40
2022-12-26T19:37:33.677Z,5.30
2022-12-26T19:40:25.246Z,5.20
2022-12-26T19:43:18.113Z,5.20
2022-12-26T19:46:07.485Z,5.10
2022-12-26T19:48:57.788Z,5.00
2022-12-26T19:51:47.076Z,4.90
2022-12-26T19:54:34.891Z,4.80
2022-12-26T19:57:25.748Z,4.70
2022-12-26T20:00:13.831Z,4.70
2022-12-26T20:03:01.743Z,4.60
2022-12-26T20:05:50.947Z,4.50
2022-12-26T20:08:39.039Z,4.40
2022-12-26T20:11:29.279Z,4.40
2022-12-26T20:14:18.466Z,4.30
2022-12-26T20:17:09.421Z,4.30
2022-12-26T20:19:57.584Z,4.30
2022-12-26T20:22:52.734Z,4.30
2022-12-26T20:25:45.253Z,4.40
2022-12-26T20:28:33.600Z,4.20
2022-12-26T20:31:22.146Z,4.30
2022-12-26T20:34:11.246Z,4.20
2022-12-26T20:36:59.503Z,4.20
2022-12-26T20:39:48.924Z,4.20
2022-12-26T20:42:37.062Z,4.30
2022-12-26T20:45:24.894Z,4.30
2022-12-26T20:48:12.762Z,4.20
2022-12-26T20:51:01.889Z,4.20
2022-12-26T20:53:51.159Z,4.20
2022-12-26T20:56:40.575Z,4.20
2022-12-26T20:59:28.394Z,4.20
2022-12-26T21:02:16.373Z,4.10
2022-12-26T21:05:04.838Z,4.00
2022-12-26T21:07:52.613Z,4.00
2022-12-26T21:10:43.445Z,3.90
2022-12-26T21:13:33.110Z,4.00
2022-12-26T21:16:22.323Z,4.00
2022-12-26T21:19:15.652Z,4.00
2022-12-26T21:22:04.074Z,4.00
2022-12-26T21:24:51.864Z,3.90
2022-12-26T21:27:42.866Z,3.90
2022-12-26T21:30:32.316Z,3.90
2022-12-26T21:33:20.194Z,3.90
2022-12-26T21:36:11.476Z,3.80
2022-12-26T21:38:59.276Z,3.90
2022-12-26T21:41:47.341Z,3.70
2022-12-26T21:44:35.790Z,3.90
2022-12-26T21:47:25.023Z,3.90
2022-12-26T21:50:12.816Z,3.80
2022-12-26T21:53:00.787Z,3.80
2022-12-26T21:55:48.923Z,3.70
2022-12-26T21:58:51.134Z,3.70
2022-12-26T22:01:39.047Z,3.60
2022-12-26T22:04:29.209Z,3.60
2022-12-26T22:07:17.051Z,3.60
2022-12-26T22:10:05.714Z,3.50
2022-12-26T22:12:58.552Z,3.50
2022-12-26T22:16:09.842Z,3.50
2022-12-26T22:18:57.865Z,3.50
2022-12-26T22:21:47.367Z,3.50
2022-12-26T22:24:35.164Z,3.50
2022-12-26T22:27:23.389Z,3.50
2022-12-26T22:30:11.745Z,3.50
2022-12-26T22:32:59.564Z,3.50
2022-12-26T22:35:47.773Z,3.60
2022-12-26T22:38:37.401Z,3.50
2022-12-26T22:41:25.559Z,3.50
2022-12-26T22:44:13.894Z,3.60
2022-12-26T22:47:01.715Z,3.60
2022-12-26T22:49:49.594Z,3.60
2022-12-26T22:52:37.724Z,3.60
2022-12-26T22:55:26.943Z,3.60
2022-12-26T22:58:14.830Z,3.70
2022-12-26T23:01:02.663Z,3.70
2022-12-26T23:03:50.516Z,3.60
2022-12-26T23:06:42.588Z,3.60
2022-12-26T23:09:30.665Z,3.60
2022-12-26T23:12:37.939Z,3.60
2022-12-26T23:15:27.050Z,3.60
2022-12-26T23:18:36.113Z,3.60
2022-12-26T23:21:43.112Z,3.60
2022-12-26T23:24:31.966Z,3.60
2022-12-26T23:27:39.426Z,3.60
2022-12-26T23:30:31.177Z,3.60
2022-12-26T23:33:19.016Z,3.50
2022-12-26T23:36:07.458Z,3.50
2022-12-26T23:38:55.433Z,3.60
2022-12-26T23:41:43.413Z,3.60
2022-12-26T23:44:32.672Z,3.60
2022-12-26T23:47:20.572Z,3.60
2022-12-26T23:50:09.190Z,3.50
2022-12-26T23:52:57.035Z,3.50
2022-12-26T23:55:44.895Z,3.60
2022-12-26T23:58:32.792Z,3.60
